Hillsboro, Texas
Current Conditions -  °F | °C
As of 12:35 PM on Saturday 25 Oct 2014 (Local Time) from KINJ Reporting Station
Clear Clear  
Wind Chill: 82°   Ceiling: Unl
Heat Index: 82°   Visibility: 10mi
Dew Point: 59°   Wind: 8mph
Humidity: 47%   Direction: 240°WSW
Pressure: 30.15"   Gusts: 16mph
Location:  32.01°N, 97.13°W
Report Text: KINJ 251735Z AUTO 24007G14KT 10SM CLR 28/15 A3015 RMK AO2 T02750152
Loading
Personal Weather Stations






























Interactive Weather Map
Tropical Storm Tracking
New forecast layout! Learn more

10-Day Weather Forecast

Advertisements
Track Severe Weather on mobile